sensor_id;sensor_type;location;lat;lon;timestamp;P1;durP1;ratioP1;P2;durP2;ratioP2
54454;SDS011;40364;52.270;10.546;2023-08-31T00:01:15;8.23;;;5.95;;
54454;SDS011;40364;52.270;10.546;2023-08-31T00:03:43;8.38;;;5.78;;
54454;SDS011;40364;52.270;10.546;2023-08-31T00:06:10;9.70;;;7.00;;
54454;SDS011;40364;52.270;10.546;2023-08-31T00:08:37;10.30;;;6.28;;
54454;SDS011;40364;52.270;10.546;2023-08-31T00:11:03;10.75;;;5.30;;
54454;SDS011;40364;52.270;10.546;2023-08-31T00:16:05;8.35;;;6.40;;
54454;SDS011;40364;52.270;10.546;2023-08-31T00:18:34;9.57;;;5.60;;
54454;SDS011;40364;52.270;10.546;2023-08-31T00:21:01;7.45;;;5.75;;
54454;SDS011;40364;52.270;10.546;2023-08-31T00:23:28;11.48;;;5.93;;
54454;SDS011;40364;52.270;10.546;2023-08-31T00:25:55;10.00;;;6.55;;
54454;SDS011;40364;52.270;10.546;2023-08-31T00:28:22;9.32;;;5.93;;
54454;SDS011;40364;52.270;10.546;2023-08-31T00:30:50;9.27;;;6.07;;
54454;SDS011;40364;52.270;10.546;2023-08-31T00:33:18;8.45;;;5.43;;
54454;SDS011;40364;52.270;10.546;2023-08-31T00:35:45;9.70;;;6.32;;
54454;SDS011;40364;52.270;10.546;2023-08-31T00:38:12;9.00;;;6.68;;
54454;SDS011;40364;52.270;10.546;2023-08-31T00:40:39;13.80;;;6.50;;
54454;SDS011;40364;52.270;10.546;2023-08-31T00:43:07;12.95;;;6.68;;
54454;SDS011;40364;52.270;10.546;2023-08-31T00:45:34;11.32;;;6.38;;
54454;SDS011;40364;52.270;10.546;2023-08-31T00:48:01;11.25;;;6.25;;
54454;SDS011;40364;52.270;10.546;2023-08-31T00:50:29;10.02;;;6.00;;
54454;SDS011;40364;52.270;10.546;2023-08-31T00:52:56;8.45;;;6.28;;
54454;SDS011;40364;52.270;10.546;2023-08-31T00:55:22;9.50;;;6.30;;
54454;SDS011;40364;52.270;10.546;2023-08-31T00:57:49;9.40;;;6.80;;
54454;SDS011;40364;52.270;10.546;2023-08-31T01:00:16;9.55;;;6.18;;
54454;SDS011;40364;52.270;10.546;2023-08-31T01:02:46;10.88;;;6.15;;
54454;SDS011;40364;52.270;10.546;2023-08-31T01:05:24;11.65;;;6.60;;
54454;SDS011;40364;52.270;10.546;2023-08-31T01:08:02;8.10;;;6.20;;
54454;SDS011;40364;52.270;10.546;2023-08-31T01:10:40;11.10;;;6.28;;
54454;SDS011;40364;52.270;10.546;2023-08-31T01:13:14;13.07;;;6.35;;
54454;SDS011;40364;52.270;10.546;2023-08-31T01:15:44;10.85;;;6.50;;
54454;SDS011;40364;52.270;10.546;2023-08-31T01:18:13;11.48;;;6.75;;
54454;SDS011;40364;52.270;10.546;2023-08-31T01:20:46;10.68;;;6.68;;
54454;SDS011;40364;52.270;10.546;2023-08-31T01:23:19;12.13;;;6.68;;
54454;SDS011;40364;52.270;10.546;2023-08-31T01:25:48;12.25;;;6.72;;
54454;SDS011;40364;52.270;10.546;2023-08-31T01:28:15;13.30;;;6.75;;
54454;SDS011;40364;52.270;10.546;2023-08-31T01:30:42;11.35;;;6.57;;
54454;SDS011;40364;52.270;10.546;2023-08-31T01:33:08;13.30;;;6.50;;
54454;SDS011;40364;52.270;10.546;2023-08-31T01:35:38;9.80;;;6.15;;
54454;SDS011;40364;52.270;10.546;2023-08-31T01:38:09;11.50;;;6.80;;
54454;SDS011;40364;52.270;10.546;2023-08-31T01:40:38;15.63;;;6.72;;
54454;SDS011;40364;52.270;10.546;2023-08-31T01:43:11;12.02;;;7.07;;
54454;SDS011;40364;52.270;10.546;2023-08-31T01:45:40;9.02;;;6.47;;
54454;SDS011;40364;52.270;10.546;2023-08-31T01:48:07;14.27;;;6.70;;
54454;SDS011;40364;52.270;10.546;2023-08-31T01:50:34;14.27;;;6.43;;
54454;SDS011;40364;52.270;10.546;2023-08-31T01:53:01;9.38;;;5.95;;
54454;SDS011;40364;52.270;10.546;2023-08-31T01:55:28;13.57;;;6.78;;
54454;SDS011;40364;52.270;10.546;2023-08-31T01:57:54;13.68;;;6.55;;
54454;SDS011;40364;52.270;10.546;2023-08-31T02:00:22;10.52;;;6.75;;
54454;SDS011;40364;52.270;10.546;2023-08-31T02:02:49;13.02;;;6.85;;
54454;SDS011;40364;52.270;10.546;2023-08-31T02:05:16;11.98;;;7.35;;
54454;SDS011;40364;52.270;10.546;2023-08-31T02:07:42;12.18;;;6.68;;
54454;SDS011;40364;52.270;10.546;2023-08-31T02:10:09;13.13;;;7.07;;
54454;SDS011;40364;52.270;10.546;2023-08-31T02:12:36;13.20;;;7.47;;
54454;SDS011;40364;52.270;10.546;2023-08-31T02:15:03;11.02;;;7.25;;
54454;SDS011;40364;52.270;10.546;2023-08-31T02:17:32;13.00;;;7.13;;
54454;SDS011;40364;52.270;10.546;2023-08-31T02:19:58;17.08;;;7.68;;
54454;SDS011;40364;52.270;10.546;2023-08-31T02:22:26;10.40;;;7.32;;
54454;SDS011;40364;52.270;10.546;2023-08-31T02:24:53;13.35;;;7.63;;
54454;SDS011;40364;52.270;10.546;2023-08-31T02:27:20;12.88;;;7.95;;
54454;SDS011;40364;52.270;10.546;2023-08-31T02:29:46;12.05;;;6.68;;
54454;SDS011;40364;52.270;10.546;2023-08-31T02:32:13;19.17;;;7.32;;
54454;SDS011;40364;52.270;10.546;2023-08-31T02:34:41;17.30;;;7.28;;
54454;SDS011;40364;52.270;10.546;2023-08-31T02:37:08;19.33;;;8.43;;
54454;SDS011;40364;52.270;10.546;2023-08-31T02:39:35;14.93;;;7.38;;
54454;SDS011;40364;52.270;10.546;2023-08-31T02:42:02;16.05;;;8.93;;
54454;SDS011;40364;52.270;10.546;2023-08-31T02:44:30;16.70;;;8.45;;
54454;SDS011;40364;52.270;10.546;2023-08-31T02:46:57;14.90;;;7.82;;
54454;SDS011;40364;52.270;10.546;2023-08-31T02:49:23;15.63;;;7.53;;
54454;SDS011;40364;52.270;10.546;2023-08-31T02:51:52;16.00;;;8.05;;
54454;SDS011;40364;52.270;10.546;2023-08-31T02:54:19;15.18;;;8.13;;
54454;SDS011;40364;52.270;10.546;2023-08-31T02:56:45;14.50;;;7.78;;
54454;SDS011;40364;52.270;10.546;2023-08-31T02:59:12;15.95;;;8.27;;
54454;SDS011;40364;52.270;10.546;2023-08-31T03:01:39;16.00;;;8.30;;
54454;SDS011;40364;52.270;10.546;2023-08-31T03:04:05;11.23;;;7.90;;
54454;SDS011;40364;52.270;10.546;2023-08-31T03:06:32;14.50;;;8.70;;
54454;SDS011;40364;52.270;10.546;2023-08-31T03:09:00;16.40;;;7.95;;
54454;SDS011;40364;52.270;10.546;2023-08-31T03:11:28;15.52;;;7.78;;
54454;SDS011;40364;52.270;10.546;2023-08-31T03:13:56;16.52;;;8.07;;
54454;SDS011;40364;52.270;10.546;2023-08-31T03:16:23;16.83;;;8.73;;
54454;SDS011;40364;52.270;10.546;2023-08-31T03:18:49;14.40;;;8.38;;
54454;SDS011;40364;52.270;10.546;2023-08-31T03:21:16;14.07;;;7.82;;
54454;SDS011;40364;52.270;10.546;2023-08-31T03:23:43;13.57;;;8.48;;
54454;SDS011;40364;52.270;10.546;2023-08-31T03:26:10;19.52;;;8.45;;
54454;SDS011;40364;52.270;10.546;2023-08-31T03:28:37;15.48;;;8.40;;
54454;SDS011;40364;52.270;10.546;2023-08-31T03:31:05;15.25;;;8.15;;
54454;SDS011;40364;52.270;10.546;2023-08-31T03:33:32;17.42;;;8.20;;
54454;SDS011;40364;52.270;10.546;2023-08-31T03:36:02;20.15;;;8.63;;
54454;SDS011;40364;52.270;10.546;2023-08-31T03:38:29;14.98;;;9.20;;
54454;SDS011;40364;52.270;10.546;2023-08-31T03:40:56;13.48;;;8.18;;
54454;SDS011;40364;52.270;10.546;2023-08-31T03:43:25;13.43;;;8.98;;
54454;SDS011;40364;52.270;10.546;2023-08-31T03:45:53;15.25;;;8.85;;
54454;SDS011;40364;52.270;10.546;2023-08-31T03:48:21;12.80;;;7.65;;
54454;SDS011;40364;52.270;10.546;2023-08-31T03:50:48;14.15;;;7.82;;
54454;SDS011;40364;52.270;10.546;2023-08-31T03:53:16;14.13;;;8.95;;
54454;SDS011;40364;52.270;10.546;2023-08-31T03:55:42;18.63;;;8.18;;
54454;SDS011;40364;52.270;10.546;2023-08-31T03:58:09;15.02;;;9.00;;
54454;SDS011;40364;52.270;10.546;2023-08-31T04:00:38;18.83;;;8.10;;
54454;SDS011;40364;52.270;10.546;2023-08-31T04:03:05;16.48;;;8.52;;
54454;SDS011;40364;52.270;10.546;2023-08-31T04:05:31;20.77;;;8.82;;
54454;SDS011;40364;52.270;10.546;2023-08-31T04:07:58;15.02;;;8.90;;
54454;SDS011;40364;52.270;10.546;2023-08-31T04:10:26;16.63;;;7.97;;
54454;SDS011;40364;52.270;10.546;2023-08-31T04:12:54;12.38;;;8.50;;
54454;SDS011;40364;52.270;10.546;2023-08-31T04:15:21;19.02;;;8.65;;
54454;SDS011;40364;52.270;10.546;2023-08-31T04:17:49;17.52;;;8.55;;
54454;SDS011;40364;52.270;10.546;2023-08-31T04:20:16;15.13;;;8.35;;
54454;SDS011;40364;52.270;10.546;2023-08-31T04:22:42;17.75;;;8.55;;
54454;SDS011;40364;52.270;10.546;2023-08-31T04:25:09;18.40;;;8.98;;
54454;SDS011;40364;52.270;10.546;2023-08-31T04:27:36;15.82;;;8.95;;
54454;SDS011;40364;52.270;10.546;2023-08-31T04:30:04;19.73;;;9.23;;
54454;SDS011;40364;52.270;10.546;2023-08-31T04:32:33;19.70;;;9.23;;
54454;SDS011;40364;52.270;10.546;2023-08-31T04:35:01;15.20;;;8.85;;
54454;SDS011;40364;52.270;10.546;2023-08-31T04:37:30;15.27;;;9.50;;
54454;SDS011;40364;52.270;10.546;2023-08-31T04:39:56;21.80;;;10.88;;
54454;SDS011;40364;52.270;10.546;2023-08-31T04:42:24;17.58;;;9.80;;
54454;SDS011;40364;52.270;10.546;2023-08-31T04:44:51;15.25;;;9.02;;
54454;SDS011;40364;52.270;10.546;2023-08-31T04:47:18;15.07;;;10.05;;
54454;SDS011;40364;52.270;10.546;2023-08-31T04:49:45;24.00;;;9.98;;
54454;SDS011;40364;52.270;10.546;2023-08-31T04:52:14;15.82;;;10.18;;
54454;SDS011;40364;52.270;10.546;2023-08-31T04:54:40;16.58;;;9.80;;
54454;SDS011;40364;52.270;10.546;2023-08-31T04:57:07;21.40;;;10.65;;
54454;SDS011;40364;52.270;10.546;2023-08-31T04:59:35;20.77;;;10.48;;
54454;SDS011;40364;52.270;10.546;2023-08-31T05:02:02;17.75;;;10.93;;
54454;SDS011;40364;52.270;10.546;2023-08-31T05:04:30;18.08;;;10.15;;
54454;SDS011;40364;52.270;10.546;2023-08-31T05:06:57;20.48;;;10.35;;
54454;SDS011;40364;52.270;10.546;2023-08-31T05:09:25;21.35;;;10.25;;
54454;SDS011;40364;52.270;10.546;2023-08-31T05:12:00;16.90;;;10.00;;
54454;SDS011;40364;52.270;10.546;2023-08-31T05:14:26;20.05;;;10.02;;
54454;SDS011;40364;52.270;10.546;2023-08-31T05:16:53;16.30;;;10.23;;
54454;SDS011;40364;52.270;10.546;2023-08-31T05:19:20;18.65;;;10.20;;
54454;SDS011;40364;52.270;10.546;2023-08-31T05:21:47;21.85;;;10.65;;
54454;SDS011;40364;52.270;10.546;2023-08-31T05:24:14;17.80;;;9.60;;
54454;SDS011;40364;52.270;10.546;2023-08-31T05:26:42;16.75;;;9.98;;
54454;SDS011;40364;52.270;10.546;2023-08-31T05:29:09;15.30;;;9.23;;
54454;SDS011;40364;52.270;10.546;2023-08-31T05:31:36;15.23;;;8.85;;
54454;SDS011;40364;52.270;10.546;2023-08-31T05:34:03;12.32;;;8.52;;
54454;SDS011;40364;52.270;10.546;2023-08-31T05:36:30;14.55;;;9.93;;
54454;SDS011;40364;52.270;10.546;2023-08-31T05:38:57;15.43;;;9.18;;
54454;SDS011;40364;52.270;10.546;2023-08-31T05:41:24;18.38;;;8.98;;
54454;SDS011;40364;52.270;10.546;2023-08-31T05:43:54;20.25;;;9.68;;
54454;SDS011;40364;52.270;10.546;2023-08-31T05:46:20;15.27;;;8.57;;
54454;SDS011;40364;52.270;10.546;2023-08-31T05:48:47;14.23;;;8.70;;
54454;SDS011;40364;52.270;10.546;2023-08-31T05:51:17;15.70;;;8.32;;
54454;SDS011;40364;52.270;10.546;2023-08-31T05:53:45;15.00;;;8.80;;
54454;SDS011;40364;52.270;10.546;2023-08-31T05:56:12;10.73;;;7.78;;
54454;SDS011;40364;52.270;10.546;2023-08-31T05:58:38;20.63;;;9.43;;
54454;SDS011;40364;52.270;10.546;2023-08-31T06:01:06;20.00;;;8.70;;
54454;SDS011;40364;52.270;10.546;2023-08-31T06:03:33;15.45;;;8.70;;
54454;SDS011;40364;52.270;10.546;2023-08-31T06:06:00;22.55;;;8.95;;
54454;SDS011;40364;52.270;10.546;2023-08-31T06:08:28;16.08;;;9.80;;
54454;SDS011;40364;52.270;10.546;2023-08-31T06:10:55;16.05;;;9.52;;
54454;SDS011;40364;52.270;10.546;2023-08-31T06:13:22;18.08;;;10.18;;
54454;SDS011;40364;52.270;10.546;2023-08-31T06:15:48;17.65;;;10.20;;
54454;SDS011;40364;52.270;10.546;2023-08-31T06:18:16;16.98;;;10.15;;
54454;SDS011;40364;52.270;10.546;2023-08-31T06:20:43;17.30;;;10.00;;
54454;SDS011;40364;52.270;10.546;2023-08-31T06:23:10;17.90;;;10.05;;
54454;SDS011;40364;52.270;10.546;2023-08-31T06:25:37;17.27;;;10.52;;
54454;SDS011;40364;52.270;10.546;2023-08-31T06:28:04;18.00;;;9.90;;
54454;SDS011;40364;52.270;10.546;2023-08-31T06:30:33;21.20;;;10.70;;
54454;SDS011;40364;52.270;10.546;2023-08-31T06:33:00;20.55;;;9.65;;
54454;SDS011;40364;52.270;10.546;2023-08-31T06:35:28;18.38;;;9.95;;
54454;SDS011;40364;52.270;10.546;2023-08-31T06:37:56;16.50;;;9.95;;
54454;SDS011;40364;52.270;10.546;2023-08-31T06:40:23;14.23;;;9.20;;
54454;SDS011;40364;52.270;10.546;2023-08-31T06:42:50;15.63;;;9.57;;
54454;SDS011;40364;52.270;10.546;2023-08-31T06:45:17;18.20;;;9.35;;
54454;SDS011;40364;52.270;10.546;2023-08-31T06:47:43;14.65;;;9.68;;
54454;SDS011;40364;52.270;10.546;2023-08-31T06:50:10;14.57;;;8.25;;
54454;SDS011;40364;52.270;10.546;2023-08-31T06:52:38;16.52;;;9.10;;
54454;SDS011;40364;52.270;10.546;2023-08-31T06:55:06;14.40;;;8.68;;
54454;SDS011;40364;52.270;10.546;2023-08-31T06:57:33;13.80;;;8.80;;
54454;SDS011;40364;52.270;10.546;2023-08-31T07:00:02;10.75;;;7.00;;
54454;SDS011;40364;52.270;10.546;2023-08-31T07:02:31;13.35;;;8.15;;
54454;SDS011;40364;52.270;10.546;2023-08-31T07:04:59;16.17;;;7.70;;
54454;SDS011;40364;52.270;10.546;2023-08-31T07:07:26;13.95;;;8.07;;
54454;SDS011;40364;52.270;10.546;2023-08-31T07:09:54;12.50;;;7.80;;
54454;SDS011;40364;52.270;10.546;2023-08-31T07:12:21;10.02;;;7.63;;
54454;SDS011;40364;52.270;10.546;2023-08-31T07:14:47;12.68;;;8.05;;
54454;SDS011;40364;52.270;10.546;2023-08-31T07:17:17;12.02;;;7.32;;
54454;SDS011;40364;52.270;10.546;2023-08-31T07:19:44;11.80;;;7.40;;
54454;SDS011;40364;52.270;10.546;2023-08-31T07:22:11;11.30;;;7.07;;
54454;SDS011;40364;52.270;10.546;2023-08-31T07:24:38;13.18;;;7.70;;
54454;SDS011;40364;52.270;10.546;2023-08-31T07:27:06;18.52;;;7.55;;
54454;SDS011;40364;52.270;10.546;2023-08-31T07:29:33;10.57;;;7.03;;
54454;SDS011;40364;52.270;10.546;2023-08-31T07:31:59;13.20;;;7.18;;
54454;SDS011;40364;52.270;10.546;2023-08-31T07:34:26;14.88;;;6.15;;
54454;SDS011;40364;52.270;10.546;2023-08-31T07:36:53;8.95;;;5.93;;
54454;SDS011;40364;52.270;10.546;2023-08-31T07:39:19;8.68;;;5.50;;
54454;SDS011;40364;52.270;10.546;2023-08-31T07:41:46;9.90;;;5.55;;
54454;SDS011;40364;52.270;10.546;2023-08-31T07:44:14;9.38;;;5.93;;
54454;SDS011;40364;52.270;10.546;2023-08-31T07:46:41;9.63;;;4.75;;
54454;SDS011;40364;52.270;10.546;2023-08-31T07:49:07;6.97;;;4.90;;
54454;SDS011;40364;52.270;10.546;2023-08-31T07:51:34;13.10;;;4.57;;
54454;SDS011;40364;52.270;10.546;2023-08-31T07:54:01;10.55;;;4.60;;
54454;SDS011;40364;52.270;10.546;2023-08-31T07:56:29;6.45;;;3.75;;
54454;SDS011;40364;52.270;10.546;2023-08-31T07:58:55;8.00;;;3.90;;
54454;SDS011;40364;52.270;10.546;2023-08-31T08:01:23;6.15;;;3.78;;
54454;SDS011;40364;52.270;10.546;2023-08-31T08:03:50;8.50;;;3.70;;
54454;SDS011;40364;52.270;10.546;2023-08-31T08:06:17;4.70;;;3.95;;
54454;SDS011;40364;52.270;10.546;2023-08-31T08:08:44;8.25;;;3.92;;
54454;SDS011;40364;52.270;10.546;2023-08-31T08:11:10;13.13;;;4.20;;
54454;SDS011;40364;52.270;10.546;2023-08-31T08:13:37;10.43;;;4.20;;
54454;SDS011;40364;52.270;10.546;2023-08-31T08:16:04;8.68;;;3.75;;
54454;SDS011;40364;52.270;10.546;2023-08-31T08:18:32;9.80;;;4.05;;
54454;SDS011;40364;52.270;10.546;2023-08-31T08:20:59;6.55;;;3.38;;
54454;SDS011;40364;52.270;10.546;2023-08-31T08:23:25;5.88;;;3.30;;
54454;SDS011;40364;52.270;10.546;2023-08-31T08:25:52;6.53;;;3.65;;
54454;SDS011;40364;52.270;10.546;2023-08-31T08:28:19;5.90;;;3.22;;
54454;SDS011;40364;52.270;10.546;2023-08-31T08:30:45;3.58;;;3.03;;
54454;SDS011;40364;52.270;10.546;2023-08-31T08:33:12;5.88;;;3.40;;
54454;SDS011;40364;52.270;10.546;2023-08-31T08:35:40;3.63;;;3.25;;
54454;SDS011;40364;52.270;10.546;2023-08-31T08:38:07;5.25;;;3.30;;
54454;SDS011;40364;52.270;10.546;2023-08-31T08:40:34;7.20;;;3.15;;
54454;SDS011;40364;52.270;10.546;2023-08-31T08:43:01;4.85;;;2.78;;
54454;SDS011;40364;52.270;10.546;2023-08-31T08:45:35;3.90;;;2.60;;
54454;SDS011;40364;52.270;10.546;2023-08-31T08:48:04;5.28;;;2.83;;
54454;SDS011;40364;52.270;10.546;2023-08-31T08:50:32;4.25;;;2.35;;
54454;SDS011;40364;52.270;10.546;2023-08-31T08:53:01;5.18;;;2.50;;
54454;SDS011;40364;52.270;10.546;2023-08-31T08:55:29;3.25;;;2.20;;
54454;SDS011;40364;52.270;10.546;2023-08-31T08:57:55;5.50;;;2.33;;
54454;SDS011;40364;52.270;10.546;2023-08-31T09:00:24;3.28;;;1.90;;
54454;SDS011;40364;52.270;10.546;2023-08-31T09:02:51;4.30;;;2.00;;
54454;SDS011;40364;52.270;10.546;2023-08-31T09:05:18;1.98;;;1.60;;
54454;SDS011;40364;52.270;10.546;2023-08-31T09:08:02;2.97;;;1.92;;
54454;SDS011;40364;52.270;10.546;2023-08-31T09:10:33;5.00;;;1.90;;
54454;SDS011;40364;52.270;10.546;2023-08-31T09:13:02;2.92;;;2.20;;
54454;SDS011;40364;52.270;10.546;2023-08-31T09:15:36;2.47;;;1.77;;
54454;SDS011;40364;52.270;10.546;2023-08-31T09:18:04;3.33;;;1.50;;
54454;SDS011;40364;52.270;10.546;2023-08-31T09:20:31;3.30;;;1.70;;
54454;SDS011;40364;52.270;10.546;2023-08-31T09:22:57;4.10;;;1.83;;
54454;SDS011;40364;52.270;10.546;2023-08-31T09:25:25;5.03;;;2.13;;
54454;SDS011;40364;52.270;10.546;2023-08-31T09:27:52;5.18;;;1.70;;
54454;SDS011;40364;52.270;10.546;2023-08-31T09:30:19;3.55;;;2.05;;
54454;SDS011;40364;52.270;10.546;2023-08-31T09:32:51;4.43;;;2.15;;
54454;SDS011;40364;52.270;10.546;2023-08-31T09:35:18;2.38;;;1.67;;
54454;SDS011;40364;52.270;10.546;2023-08-31T09:37:53;3.53;;;1.80;;
54454;SDS011;40364;52.270;10.546;2023-08-31T09:40:21;2.85;;;1.65;;
54454;SDS011;40364;52.270;10.546;2023-08-31T09:42:50;2.30;;;1.60;;
54454;SDS011;40364;52.270;10.546;2023-08-31T09:45:17;3.47;;;1.60;;
54454;SDS011;40364;52.270;10.546;2023-08-31T09:47:50;3.90;;;1.92;;
54454;SDS011;40364;52.270;10.546;2023-08-31T09:50:17;4.18;;;1.90;;
54454;SDS011;40364;52.270;10.546;2023-08-31T09:52:45;4.63;;;1.77;;
54454;SDS011;40364;52.270;10.546;2023-08-31T09:55:14;3.92;;;1.80;;
54454;SDS011;40364;52.270;10.546;2023-08-31T09:57:44;2.05;;;1.50;;
54454;SDS011;40364;52.270;10.546;2023-08-31T10:00:13;3.28;;;1.77;;
54454;SDS011;40364;52.270;10.546;2023-08-31T10:02:41;3.83;;;1.63;;
54454;SDS011;40364;52.270;10.546;2023-08-31T10:05:08;1.67;;;1.35;;
54454;SDS011;40364;52.270;10.546;2023-08-31T10:07:35;2.72;;;1.10;;
54454;SDS011;40364;52.270;10.546;2023-08-31T10:10:04;3.17;;;1.30;;
54454;SDS011;40364;52.270;10.546;2023-08-31T10:12:33;4.93;;;1.90;;
54454;SDS011;40364;52.270;10.546;2023-08-31T10:15:01;5.88;;;1.75;;
54454;SDS011;40364;52.270;10.546;2023-08-31T10:17:32;3.28;;;1.40;;
54454;SDS011;40364;52.270;10.546;2023-08-31T10:19:59;2.88;;;1.52;;
54454;SDS011;40364;52.270;10.546;2023-08-31T10:22:26;5.75;;;1.20;;
54454;SDS011;40364;52.270;10.546;2023-08-31T10:24:56;4.15;;;1.30;;
54454;SDS011;40364;52.270;10.546;2023-08-31T10:27:23;3.35;;;1.30;;
54454;SDS011;40364;52.270;10.546;2023-08-31T10:29:50;1.45;;;1.25;;
54454;SDS011;40364;52.270;10.546;2023-08-31T10:32:19;3.72;;;1.20;;
54454;SDS011;40364;52.270;10.546;2023-08-31T10:37:34;2.50;;;1.58;;
54454;SDS011;40364;52.270;10.546;2023-08-31T10:40:07;2.17;;;1.30;;
54454;SDS011;40364;52.270;10.546;2023-08-31T10:45:10;2.22;;;1.30;;
54454;SDS011;40364;52.270;10.546;2023-08-31T10:47:39;3.80;;;1.70;;
54454;SDS011;40364;52.270;10.546;2023-08-31T10:50:18;3.67;;;1.35;;
54454;SDS011;40364;52.270;10.546;2023-08-31T10:52:47;2.90;;;1.02;;
54454;SDS011;40364;52.270;10.546;2023-08-31T10:55:14;1.77;;;1.10;;
54454;SDS011;40364;52.270;10.546;2023-08-31T10:57:41;5.38;;;1.30;;
54454;SDS011;40364;52.270;10.546;2023-08-31T11:00:09;1.90;;;1.33;;
54454;SDS011;40364;52.270;10.546;2023-08-31T11:02:41;3.33;;;1.40;;
54454;SDS011;40364;52.270;10.546;2023-08-31T11:05:09;4.68;;;1.40;;
54454;SDS011;40364;52.270;10.546;2023-08-31T11:07:39;7.20;;;1.60;;
54454;SDS011;40364;52.270;10.546;2023-08-31T11:10:11;2.38;;;1.30;;
54454;SDS011;40364;52.270;10.546;2023-08-31T11:12:41;4.70;;;1.40;;
54454;SDS011;40364;52.270;10.546;2023-08-31T11:15:10;1.60;;;1.20;;
54454;SDS011;40364;52.270;10.546;2023-08-31T11:17:40;2.75;;;1.42;;
54454;SDS011;40364;52.270;10.546;2023-08-31T11:20:08;4.47;;;1.30;;
54454;SDS011;40364;52.270;10.546;2023-08-31T11:22:41;3.35;;;1.45;;
54454;SDS011;40364;52.270;10.546;2023-08-31T11:25:10;6.57;;;1.65;;
54454;SDS011;40364;52.270;10.546;2023-08-31T11:27:38;2.30;;;1.70;;
54454;SDS011;40364;52.270;10.546;2023-08-31T11:30:10;2.53;;;1.60;;
54454;SDS011;40364;52.270;10.546;2023-08-31T11:32:43;2.40;;;1.65;;
54454;SDS011;40364;52.270;10.546;2023-08-31T11:35:10;3.03;;;1.92;;
54454;SDS011;40364;52.270;10.546;2023-08-31T11:37:37;4.10;;;1.98;;
54454;SDS011;40364;52.270;10.546;2023-08-31T11:40:05;2.88;;;1.63;;
54454;SDS011;40364;52.270;10.546;2023-08-31T11:42:33;2.60;;;1.45;;
54454;SDS011;40364;52.270;10.546;2023-08-31T11:45:00;2.33;;;1.58;;
54454;SDS011;40364;52.270;10.546;2023-08-31T11:47:30;3.00;;;1.60;;
54454;SDS011;40364;52.270;10.546;2023-08-31T11:49:57;2.10;;;1.90;;
54454;SDS011;40364;52.270;10.546;2023-08-31T11:52:24;2.17;;;1.50;;
54454;SDS011;40364;52.270;10.546;2023-08-31T11:54:52;1.55;;;1.45;;
54454;SDS011;40364;52.270;10.546;2023-08-31T11:57:21;2.38;;;1.73;;
54454;SDS011;40364;52.270;10.546;2023-08-31T11:59:52;3.42;;;1.70;;
54454;SDS011;40364;52.270;10.546;2023-08-31T12:02:19;4.95;;;2.15;;
54454;SDS011;40364;52.270;10.546;2023-08-31T12:04:46;5.03;;;1.98;;
54454;SDS011;40364;52.270;10.546;2023-08-31T12:07:15;3.72;;;1.80;;
54454;SDS011;40364;52.270;10.546;2023-08-31T12:09:43;3.65;;;1.85;;
54454;SDS011;40364;52.270;10.546;2023-08-31T12:12:10;3.95;;;1.80;;
54454;SDS011;40364;52.270;10.546;2023-08-31T12:20:45;2.53;;;1.80;;
54454;SDS011;40364;52.270;10.546;2023-08-31T12:23:56;1.90;;;1.70;;
54454;SDS011;40364;52.270;10.546;2023-08-31T12:26:52;1.77;;;1.57;;
54454;SDS011;40364;52.270;10.546;2023-08-31T12:29:20;3.30;;;2.10;;
54454;SDS011;40364;52.270;10.546;2023-08-31T12:31:47;5.80;;;2.47;;
54454;SDS011;40364;52.270;10.546;2023-08-31T12:34:15;3.80;;;2.13;;
54454;SDS011;40364;52.270;10.546;2023-08-31T12:36:42;2.97;;;2.08;;
54454;SDS011;40364;52.270;10.546;2023-08-31T12:39:09;3.70;;;2.13;;
54454;SDS011;40364;52.270;10.546;2023-08-31T12:41:37;3.17;;;1.75;;
54454;SDS011;40364;52.270;10.546;2023-08-31T12:44:04;3.08;;;1.90;;
54454;SDS011;40364;52.270;10.546;2023-08-31T12:46:30;3.70;;;1.80;;
54454;SDS011;40364;52.270;10.546;2023-08-31T12:48:58;4.65;;;1.70;;
54454;SDS011;40364;52.270;10.546;2023-08-31T12:51:26;4.07;;;1.60;;
54454;SDS011;40364;52.270;10.546;2023-08-31T12:53:54;4.72;;;1.58;;
54454;SDS011;40364;52.270;10.546;2023-08-31T12:56:21;2.67;;;1.60;;
54454;SDS011;40364;52.270;10.546;2023-08-31T12:58:48;2.58;;;1.40;;
54454;SDS011;40364;52.270;10.546;2023-08-31T13:01:16;1.55;;;1.42;;
54454;SDS011;40364;52.270;10.546;2023-08-31T13:03:43;3.20;;;1.70;;
54454;SDS011;40364;52.270;10.546;2023-08-31T13:06:09;3.92;;;1.75;;
54454;SDS011;40364;52.270;10.546;2023-08-31T13:08:38;3.38;;;2.00;;
54454;SDS011;40364;52.270;10.546;2023-08-31T13:11:04;4.93;;;1.88;;
54454;SDS011;40364;52.270;10.546;2023-08-31T13:13:32;3.08;;;2.10;;
54454;SDS011;40364;52.270;10.546;2023-08-31T13:15:58;2.05;;;1.60;;
54454;SDS011;40364;52.270;10.546;2023-08-31T13:18:25;3.35;;;1.45;;
54454;SDS011;40364;52.270;10.546;2023-08-31T13:20:52;2.85;;;1.20;;
54454;SDS011;40364;52.270;10.546;2023-08-31T13:23:19;2.03;;;1.30;;
54454;SDS011;40364;52.270;10.546;2023-08-31T13:25:48;2.65;;;1.10;;
54454;SDS011;40364;52.270;10.546;2023-08-31T13:28:15;2.83;;;1.10;;
54454;SDS011;40364;52.270;10.546;2023-08-31T13:30:42;0.77;;;0.50;;
54454;SDS011;40364;52.270;10.546;2023-08-31T13:33:09;2.30;;;0.60;;
54454;SDS011;40364;52.270;10.546;2023-08-31T13:35:35;0.90;;;0.60;;
54454;SDS011;40364;52.270;10.546;2023-08-31T13:38:02;3.38;;;0.73;;
54454;SDS011;40364;52.270;10.546;2023-08-31T13:40:29;2.85;;;0.70;;
54454;SDS011;40364;52.270;10.546;2023-08-31T13:42:57;2.05;;;0.73;;
54454;SDS011;40364;52.270;10.546;2023-08-31T13:45:27;1.10;;;0.70;;
54454;SDS011;40364;52.270;10.546;2023-08-31T13:47:54;1.67;;;0.85;;
54454;SDS011;40364;52.270;10.546;2023-08-31T13:50:21;3.08;;;0.82;;
54454;SDS011;40364;52.270;10.546;2023-08-31T13:52:48;1.77;;;1.02;;
54454;SDS011;40364;52.270;10.546;2023-08-31T13:55:14;2.30;;;0.90;;
54454;SDS011;40364;52.270;10.546;2023-08-31T13:57:41;3.00;;;1.00;;
54454;SDS011;40364;52.270;10.546;2023-08-31T14:00:10;1.00;;;0.80;;
54454;SDS011;40364;52.270;10.546;2023-08-31T14:02:38;1.10;;;0.85;;
54454;SDS011;40364;52.270;10.546;2023-08-31T14:05:05;0.60;;;0.60;;
54454;SDS011;40364;52.270;10.546;2023-08-31T14:07:34;1.17;;;0.80;;
54454;SDS011;40364;52.270;10.546;2023-08-31T14:10:00;2.13;;;0.90;;
54454;SDS011;40364;52.270;10.546;2023-08-31T14:12:30;1.77;;;0.88;;
54454;SDS011;40364;52.270;10.546;2023-08-31T14:14:56;2.05;;;0.70;;
54454;SDS011;40364;52.270;10.546;2023-08-31T14:17:25;0.65;;;0.60;;
54454;SDS011;40364;52.270;10.546;2023-08-31T14:19:52;1.05;;;0.90;;
54454;SDS011;40364;52.270;10.546;2023-08-31T14:22:18;4.47;;;1.20;;
54454;SDS011;40364;52.270;10.546;2023-08-31T14:24:45;2.75;;;1.20;;
54454;SDS011;40364;52.270;10.546;2023-08-31T14:27:12;2.10;;;1.20;;
54454;SDS011;40364;52.270;10.546;2023-08-31T14:29:38;2.88;;;0.80;;
54454;SDS011;40364;52.270;10.546;2023-08-31T14:32:05;5.75;;;1.10;;
54454;SDS011;40364;52.270;10.546;2023-08-31T14:34:33;2.33;;;0.75;;
54454;SDS011;40364;52.270;10.546;2023-08-31T14:37:00;0.93;;;0.63;;
54454;SDS011;40364;52.270;10.546;2023-08-31T14:39:27;0.57;;;0.47;;
54454;SDS011;40364;52.270;10.546;2023-08-31T14:41:54;1.65;;;0.73;;
54454;SDS011;40364;52.270;10.546;2023-08-31T14:44:23;2.45;;;0.60;;
54454;SDS011;40364;52.270;10.546;2023-08-31T14:46:50;2.47;;;0.52;;